createdAt,value
2018-06-01T00:00:49.905Z,0.00
2018-06-01T00:01:49.723Z,0.00
2018-06-01T00:03:43.025Z,0.00
2018-06-01T00:04:42.949Z,0.00
2018-06-01T00:06:36.231Z,0.00
2018-06-01T00:07:36.172Z,0.00
2018-06-01T00:09:29.476Z,0.00
2018-06-01T00:10:29.398Z,0.00
2018-06-01T00:12:22.682Z,0.00
2018-06-01T00:13:22.623Z,0.00
2018-06-01T00:15:15.924Z,0.00
2018-06-01T00:16:15.848Z,0.00
2018-06-01T00:18:09.121Z,0.00
2018-06-01T00:19:09.066Z,0.00
2018-06-01T00:21:02.467Z,0.00
2018-06-01T00:22:02.290Z,0.00
2018-06-01T00:23:55.590Z,0.00
2018-06-01T00:24:55.511Z,0.00
2018-06-01T00:26:48.796Z,0.00
2018-06-01T00:27:48.738Z,0.00
2018-06-01T00:29:42.040Z,0.00
2018-06-01T00:30:41.963Z,0.00
2018-06-01T00:32:35.330Z,0.00
2018-06-01T00:33:35.272Z,0.00
2018-06-01T00:35:28.574Z,0.00
2018-06-01T00:36:28.495Z,0.00
2018-06-01T00:38:21.781Z,0.00
2018-06-01T00:39:21.720Z,0.00
2018-06-01T00:41:15.024Z,0.00
2018-06-01T00:42:14.944Z,0.00
2018-06-01T00:44:08.249Z,0.00
2018-06-01T00:45:08.168Z,0.00
2018-06-01T00:47:01.457Z,0.00
2018-06-01T00:48:01.391Z,0.00
2018-06-01T00:49:54.693Z,0.00
2018-06-01T00:50:54.616Z,0.00
2018-06-01T00:52:47.898Z,0.00
2018-06-01T00:53:47.841Z,0.00
2018-06-01T00:55:41.141Z,0.00
2018-06-01T00:56:41.060Z,0.00
2018-06-01T00:58:34.447Z,0.00
2018-06-01T00:59:34.288Z,0.00
2018-06-01T01:01:27.587Z,0.00
2018-06-01T01:02:27.512Z,0.00
2018-06-01T01:04:20.818Z,0.00
2018-06-01T01:05:20.735Z,0.00
2018-06-01T01:07:14.019Z,0.00
2018-06-01T01:08:13.960Z,0.00
2018-06-01T01:10:07.350Z,0.00
2018-06-01T01:11:07.272Z,0.00
2018-06-01T01:13:00.554Z,0.00
2018-06-01T01:14:00.496Z,0.00
2018-06-01T01:15:53.799Z,0.00
2018-06-01T01:16:53.718Z,0.00
2018-06-01T01:18:47.003Z,0.00
2018-06-01T01:19:46.945Z,0.00
2018-06-01T01:21:40.245Z,0.00
2018-06-01T01:22:40.166Z,0.00
2018-06-01T01:24:33.474Z,0.00
2018-06-01T01:25:33.388Z,0.00
2018-06-01T01:27:26.662Z,0.00
2018-06-01T01:28:26.603Z,0.00
2018-06-01T01:30:20.007Z,0.00
2018-06-01T01:31:19.828Z,0.00
2018-06-01T01:33:13.107Z,0.00
2018-06-01T01:34:13.048Z,0.00
2018-06-01T01:36:06.959Z,0.00
2018-06-01T01:37:06.272Z,0.00
2018-06-01T01:38:59.552Z,0.00
2018-06-01T01:39:59.493Z,0.00
2018-06-01T01:41:52.795Z,0.00
2018-06-01T01:42:52.717Z,0.00
2018-06-01T01:44:46.120Z,0.00
2018-06-01T01:45:45.939Z,0.00
2018-06-01T01:47:39.218Z,0.00
2018-06-01T01:48:39.155Z,0.00
2018-06-01T01:50:32.457Z,0.00
2018-06-01T01:51:32.377Z,0.00
2018-06-01T01:53:25.660Z,0.00
2018-06-01T01:54:25.612Z,0.00
2018-06-01T01:56:18.903Z,0.00
2018-06-01T01:57:18.826Z,0.00
2018-06-01T01:59:12.108Z,0.00
2018-06-01T02:00:12.049Z,0.00
2018-06-01T02:02:05.353Z,0.00
2018-06-01T02:03:05.272Z,0.00
2018-06-01T02:04:58.575Z,0.00
2018-06-01T02:05:58.495Z,0.00
2018-06-01T02:07:51.779Z,0.00
2018-06-01T02:08:51.720Z,0.00
2018-06-01T02:10:45.023Z,0.00
2018-06-01T02:11:44.944Z,0.00
2018-06-01T02:13:38.225Z,0.00
2018-06-01T02:14:38.167Z,0.00
2018-06-01T02:16:31.468Z,0.00
2018-06-01T02:17:31.391Z,0.00
2018-06-01T02:19:24.673Z,0.00
2018-06-01T02:20:24.659Z,0.00
2018-06-01T02:22:18.016Z,0.00
2018-06-01T02:23:17.836Z,0.00
2018-06-01T02:25:11.138Z,0.00
2018-06-01T02:26:11.060Z,0.00
2018-06-01T02:28:04.359Z,0.00
2018-06-01T02:29:04.303Z,0.00
2018-06-01T02:30:57.604Z,0.00
2018-06-01T02:31:57.523Z,0.00
2018-06-01T02:33:50.805Z,0.00
2018-06-01T02:34:50.743Z,0.00
2018-06-01T02:36:44.055Z,0.00
2018-06-01T02:37:43.969Z,0.00
2018-06-01T02:39:37.855Z,0.00
2018-06-01T02:40:37.276Z,0.00
2018-06-01T02:42:30.578Z,0.00
2018-06-01T02:43:30.497Z,0.00
2018-06-01T02:45:23.799Z,0.00
2018-06-01T02:46:23.719Z,0.00
2018-06-01T02:48:17.104Z,0.00
2018-06-01T02:49:16.948Z,0.00
2018-06-01T02:51:10.347Z,0.00
2018-06-01T02:52:10.169Z,0.00
2018-06-01T02:54:03.552Z,0.00
2018-06-01T02:55:03.391Z,0.00
2018-06-01T02:56:56.698Z,0.00
2018-06-01T02:57:56.613Z,0.00
2018-06-01T02:59:49.894Z,0.00
2018-06-01T03:00:49.836Z,0.00
2018-06-01T03:02:43.137Z,0.00
2018-06-01T03:03:43.063Z,0.00
2018-06-01T03:05:36.367Z,0.00
2018-06-01T03:06:36.282Z,0.00
2018-06-01T03:08:29.564Z,0.00
2018-06-01T03:09:29.508Z,0.00
2018-06-01T03:11:22.807Z,0.00
2018-06-01T03:12:22.727Z,0.00
2018-06-01T03:14:16.013Z,0.00
2018-06-01T03:15:15.950Z,0.00
2018-06-01T03:17:09.251Z,0.00
2018-06-01T03:18:09.173Z,0.00
2018-06-01T03:20:02.455Z,0.00
2018-06-01T03:21:02.395Z,0.00
2018-06-01T03:22:55.697Z,5.63
2018-06-01T03:23:55.618Z,5.63
2018-06-01T03:25:48.921Z,5.63
2018-06-01T03:26:48.841Z,5.63
2018-06-01T03:28:42.123Z,5.63
2018-06-01T03:29:42.063Z,11.25
2018-06-01T03:31:35.369Z,11.25
2018-06-01T03:32:35.286Z,11.25
2018-06-01T03:34:28.568Z,11.25
2018-06-01T03:35:28.512Z,16.88
2018-06-01T03:37:21.805Z,16.88
2018-06-01T03:38:21.724Z,16.88
2018-06-01T03:40:15.005Z,16.88
2018-06-01T03:41:14.947Z,22.50
2018-06-01T03:43:08.350Z,22.50
2018-06-01T03:44:08.169Z,22.50
2018-06-01T03:46:01.472Z,28.13
2018-06-01T03:47:01.392Z,28.13
2018-06-01T03:48:54.676Z,33.75
2018-06-01T03:49:54.613Z,33.75
2018-06-01T03:51:47.916Z,33.75
2018-06-01T03:52:47.841Z,33.75
2018-06-01T03:54:41.117Z,39.38
2018-06-01T03:55:41.059Z,39.38
2018-06-01T03:57:34.362Z,39.38
2018-06-01T03:58:34.283Z,39.38
2018-06-01T04:00:27.565Z,39.38
2018-06-01T04:01:27.505Z,39.38
2018-06-01T04:03:20.807Z,45.00
2018-06-01T04:04:20.729Z,45.00
2018-06-01T04:06:14.032Z,45.00
2018-06-01T04:07:13.953Z,45.00
2018-06-01T04:09:07.236Z,50.63
2018-06-01T04:10:07.179Z,50.63
2018-06-01T04:12:00.478Z,50.63
2018-06-01T04:13:00.401Z,50.63
2018-06-01T04:14:53.687Z,50.63
2018-06-01T04:15:53.633Z,50.63
2018-06-01T04:17:46.936Z,56.25
2018-06-01T04:18:46.859Z,56.25
2018-06-01T04:20:40.140Z,61.88
2018-06-01T04:21:40.082Z,67.50
2018-06-01T04:23:33.383Z,78.75
2018-06-01T04:24:33.307Z,84.38
2018-06-01T04:26:26.611Z,90.00
2018-06-01T04:27:26.532Z,90.00
2018-06-01T04:29:19.818Z,95.63
2018-06-01T04:30:19.760Z,90.00
2018-06-01T04:32:13.063Z,84.38
2018-06-01T04:33:12.987Z,84.38
2018-06-01T04:35:06.271Z,78.75
2018-06-01T04:36:06.213Z,78.75
2018-06-01T04:37:59.508Z,78.75
2018-06-01T04:38:59.431Z,84.38
2018-06-01T04:40:52.716Z,95.63
2018-06-01T04:41:52.658Z,101.25
2018-06-01T04:43:45.963Z,106.88
2018-06-01T04:44:45.885Z,112.50
2018-06-01T04:46:39.196Z,112.50
2018-06-01T04:47:39.113Z,112.50
2018-06-01T04:49:32.399Z,118.13
2018-06-01T04:50:32.342Z,118.13
2018-06-01T04:52:25.648Z,118.13
2018-06-01T04:53:25.571Z,118.13
2018-06-01T04:55:18.960Z,118.13
2018-06-01T04:56:18.800Z,118.13
2018-06-01T04:58:12.108Z,123.75
2018-06-01T04:59:12.036Z,123.75
2018-06-01T05:01:05.334Z,123.75
2018-06-01T05:02:05.275Z,112.50
2018-06-01T05:03:58.592Z,112.50
2018-06-01T05:04:58.516Z,106.88
2018-06-01T05:06:51.818Z,106.88
2018-06-01T05:07:51.740Z,106.88
2018-06-01T05:09:45.027Z,95.63
2018-06-01T05:10:44.969Z,95.63
2018-06-01T05:12:38.280Z,101.25
2018-06-01T05:13:38.202Z,101.25
2018-06-01T05:15:31.590Z,101.25
2018-06-01T05:16:31.434Z,101.25
2018-06-01T05:18:25.343Z,101.25
2018-06-01T05:19:24.660Z,95.63
2018-06-01T05:21:17.947Z,95.63
2018-06-01T05:22:17.957Z,90.00
2018-06-01T05:24:11.303Z,84.38
2018-06-01T05:25:11.119Z,84.38
2018-06-01T05:27:04.527Z,84.38
2018-06-01T05:28:04.350Z,78.75
2018-06-01T05:29:57.640Z,78.75
2018-06-01T05:30:57.583Z,78.75
2018-06-01T05:32:50.888Z,78.75
2018-06-01T05:33:50.812Z,78.75
2018-06-01T05:35:44.098Z,78.75
2018-06-01T05:36:44.047Z,78.75
2018-06-01T05:38:37.355Z,78.75
2018-06-01T05:39:37.283Z,84.38
2018-06-01T05:41:30.563Z,90.00
2018-06-01T05:42:30.506Z,90.00
2018-06-01T05:44:23.816Z,90.00
2018-06-01T05:45:23.734Z,84.38
2018-06-01T05:47:17.076Z,84.38
2018-06-01T05:48:16.964Z,90.00
2018-06-01T05:50:10.250Z,95.63
2018-06-01T05:51:10.193Z,101.25
2018-06-01T05:53:03.607Z,101.25
2018-06-01T05:54:03.425Z,106.88
2018-06-01T05:55:56.709Z,112.50
2018-06-01T05:56:56.651Z,112.50
2018-06-01T05:58:49.958Z,112.50
2018-06-01T05:59:49.882Z,118.13
2018-06-01T06:01:43.169Z,123.75
2018-06-01T06:02:43.157Z,123.75
2018-06-01T06:04:36.440Z,129.38
2018-06-01T06:05:36.331Z,135.00
2018-06-01T06:07:29.633Z,146.25
2018-06-01T06:08:29.558Z,157.50
2018-06-01T06:10:22.841Z,174.38
2018-06-01T06:11:22.780Z,180.00
2018-06-01T06:13:16.155Z,191.25
2018-06-01T06:14:16.005Z,191.25
2018-06-01T06:16:09.340Z,185.63
2018-06-01T06:17:09.279Z,168.75
2018-06-01T06:19:02.586Z,146.25
2018-06-01T06:20:02.507Z,135.00
2018-06-01T06:21:55.785Z,118.13
2018-06-01T06:22:55.733Z,118.13
2018-06-01T06:24:49.031Z,129.38
2018-06-01T06:25:48.963Z,140.63
2018-06-01T06:27:42.259Z,157.50
2018-06-01T06:28:42.185Z,168.75
2018-06-01T06:30:35.471Z,185.63
2018-06-01T06:31:35.423Z,196.88
2018-06-01T06:33:28.736Z,230.63
2018-06-01T06:34:28.640Z,281.25
2018-06-01T06:36:22.032Z,298.13
2018-06-01T06:37:21.870Z,298.13
2018-06-01T06:39:15.284Z,286.88
2018-06-01T06:40:15.111Z,281.25
2018-06-01T06:42:08.395Z,275.63
2018-06-01T06:43:08.366Z,270.00
2018-06-01T06:45:01.653Z,258.75
2018-06-01T06:46:01.585Z,258.75
2018-06-01T06:47:54.897Z,264.38
2018-06-01T06:48:54.829Z,264.38
2018-06-01T06:50:48.128Z,258.75
2018-06-01T06:51:48.072Z,253.13
2018-06-01T06:53:41.996Z,241.88
2018-06-01T06:54:41.320Z,253.13
2018-06-01T06:56:34.613Z,253.13
2018-06-01T06:57:34.564Z,253.13
2018-06-01T06:59:27.877Z,253.13
2018-06-01T07:00:27.809Z,253.13
2018-06-01T07:02:21.104Z,241.88
2018-06-01T07:03:21.063Z,241.88
2018-06-01T07:05:14.474Z,236.25
2018-06-01T07:06:14.310Z,219.38
2018-06-01T07:08:07.617Z,196.88
2018-06-01T07:09:07.553Z,191.25
2018-06-01T07:11:00.855Z,213.75
2018-06-01T07:12:00.813Z,213.75
2018-06-01T07:13:54.226Z,174.38
2018-06-01T07:14:54.052Z,168.75
2018-06-01T07:16:47.344Z,163.13
2018-06-01T07:17:47.295Z,163.13
2018-06-01T07:19:40.722Z,151.88
2018-06-01T07:20:40.542Z,140.63
2018-06-01T07:22:33.829Z,118.13
2018-06-01T07:23:33.777Z,112.50
2018-06-01T07:25:27.088Z,106.88
2018-06-01T07:26:27.017Z,106.88
2018-06-01T07:28:20.327Z,106.88
2018-06-01T07:29:20.257Z,106.88
2018-06-01T07:31:13.544Z,101.25
2018-06-01T07:32:13.491Z,95.63
2018-06-01T07:34:06.905Z,95.63
2018-06-01T07:35:06.734Z,95.63
2018-06-01T07:37:00.009Z,95.63
2018-06-01T07:37:59.960Z,95.63
2018-06-01T07:39:53.357Z,90.00
2018-06-01T07:40:53.286Z,90.00
2018-06-01T07:42:46.569Z,78.75
2018-06-01T07:43:46.515Z,73.13
2018-06-01T07:45:39.818Z,67.50
2018-06-01T07:46:39.748Z,61.88
2018-06-01T07:48:33.043Z,61.88
2018-06-01T07:49:32.974Z,61.88
2018-06-01T07:51:26.255Z,56.25
2018-06-01T07:52:26.201Z,56.25
2018-06-01T07:54:19.606Z,50.63
2018-06-01T07:55:19.427Z,50.63
2018-06-01T07:57:12.709Z,39.38
2018-06-01T07:58:12.655Z,33.75
2018-06-01T08:00:05.954Z,16.88
2018-06-01T08:01:05.878Z,16.88
2018-06-01T08:02:59.268Z,22.50
2018-06-01T08:03:59.103Z,28.13
2018-06-01T08:05:52.510Z,33.75
2018-06-01T08:06:52.328Z,22.50
2018-06-01T08:08:45.625Z,22.50
2018-06-01T08:09:45.548Z,28.13
2018-06-01T08:11:38.835Z,28.13
2018-06-01T08:12:38.780Z,28.13
2018-06-01T08:14:32.074Z,22.50
2018-06-01T08:15:32.001Z,22.50
2018-06-01T08:17:25.277Z,16.88
2018-06-01T08:18:25.222Z,16.88
2018-06-01T08:20:18.519Z,16.88
2018-06-01T08:21:18.437Z,16.88
2018-06-01T08:23:11.714Z,22.50
2018-06-01T08:24:11.658Z,22.50
2018-06-01T08:26:04.959Z,33.75
2018-06-01T08:27:04.936Z,33.75
2018-06-01T08:28:58.282Z,39.38
2018-06-01T08:29:58.097Z,39.38
2018-06-01T08:31:51.372Z,33.75
2018-06-01T08:32:51.314Z,33.75
2018-06-01T08:34:44.611Z,39.38
2018-06-01T08:35:44.536Z,39.38
2018-06-01T08:37:37.818Z,33.75
2018-06-01T08:38:37.760Z,33.75
2018-06-01T08:40:31.060Z,33.75
2018-06-01T08:41:30.986Z,33.75
2018-06-01T08:43:24.276Z,33.75
2018-06-01T08:44:24.202Z,33.75
2018-06-01T08:46:17.498Z,33.75
2018-06-01T08:47:17.421Z,28.13
2018-06-01T08:49:10.718Z,28.13
2018-06-01T08:50:10.644Z,28.13
2018-06-01T08:52:03.924Z,28.13
2018-06-01T08:53:03.865Z,22.50
2018-06-01T08:54:57.278Z,28.13
2018-06-01T08:55:57.082Z,28.13
2018-06-01T08:57:50.367Z,28.13
2018-06-01T08:58:50.308Z,28.13
2018-06-01T09:00:43.601Z,28.13
2018-06-01T09:01:43.524Z,28.13
2018-06-01T09:03:36.837Z,22.50
2018-06-01T09:04:36.804Z,22.50
2018-06-01T09:06:30.024Z,16.88
2018-06-01T09:07:29.966Z,16.88
2018-06-01T09:09:23.355Z,16.88
2018-06-01T09:10:23.335Z,16.88
2018-06-01T09:12:16.665Z,16.88
2018-06-01T09:13:16.496Z,11.25
2018-06-01T09:15:09.791Z,16.88
2018-06-01T09:16:09.760Z,16.88
2018-06-01T09:18:02.991Z,16.88
2018-06-01T09:19:02.942Z,16.88
2018-06-01T09:20:56.333Z,16.88
2018-06-01T09:21:56.153Z,16.88
2018-06-01T09:23:49.471Z,16.88
2018-06-01T09:24:49.369Z,16.88
2018-06-01T09:26:42.643Z,16.88
2018-06-01T09:27:42.585Z,16.88
2018-06-01T09:29:35.993Z,16.88
2018-06-01T09:30:35.800Z,16.88
2018-06-01T09:32:29.077Z,16.88
2018-06-01T09:33:29.024Z,16.88
2018-06-01T09:35:22.425Z,22.50
2018-06-01T09:36:22.236Z,22.50
2018-06-01T09:38:15.515Z,22.50
2018-06-01T09:39:15.454Z,22.50
2018-06-01T09:41:08.741Z,28.13
2018-06-01T09:42:08.664Z,28.13
2018-06-01T09:44:02.069Z,33.75
2018-06-01T09:45:01.877Z,39.38
2018-06-01T09:46:55.157Z,45.00
2018-06-01T09:47:55.097Z,50.63
2018-06-01T09:49:48.387Z,56.25
2018-06-01T09:50:48.312Z,61.88
2018-06-01T09:52:41.695Z,61.88
2018-06-01T09:53:41.524Z,67.50
2018-06-01T09:55:34.849Z,67.50
2018-06-01T09:56:34.736Z,73.13
2018-06-01T09:58:28.012Z,73.13
2018-06-01T09:59:27.956Z,78.75
2018-06-01T10:01:21.250Z,84.38
2018-06-01T10:02:21.169Z,95.63
2018-06-01T10:04:14.468Z,101.25
2018-06-01T10:05:14.388Z,106.88
2018-06-01T10:07:07.664Z,112.50
2018-06-01T10:08:07.605Z,112.50
2018-06-01T10:10:01.030Z,112.50
2018-06-01T10:11:00.823Z,118.13
2018-06-01T10:12:54.100Z,118.13
2018-06-01T10:13:54.048Z,123.75
2018-06-01T10:15:47.426Z,123.75
2018-06-01T10:16:47.289Z,129.38
2018-06-01T10:18:40.563Z,129.38
2018-06-01T10:19:40.502Z,135.00
2018-06-01T10:21:33.797Z,140.63
2018-06-01T10:22:33.723Z,146.25
2018-06-01T10:24:27.094Z,151.88
2018-06-01T10:25:26.956Z,157.50
2018-06-01T10:27:20.213Z,168.75
2018-06-01T10:28:20.154Z,174.38
2018-06-01T10:30:13.452Z,174.38
2018-06-01T10:31:13.379Z,180.00
2018-06-01T10:33:06.663Z,185.63
2018-06-01T10:34:06.614Z,191.25
2018-06-01T10:36:00.010Z,196.88
2018-06-01T10:36:59.821Z,202.50
2018-06-01T10:38:53.104Z,213.75
2018-06-01T10:39:53.044Z,219.38
2018-06-01T10:41:46.344Z,236.25
2018-06-01T10:42:46.280Z,241.88
2018-06-01T10:44:39.570Z,264.38
2018-06-01T10:45:39.496Z,253.13
2018-06-01T10:47:32.781Z,292.50
2018-06-01T10:48:32.725Z,292.50
2018-06-01T10:50:26.027Z,320.63
2018-06-01T10:51:25.954Z,326.25
2018-06-01T10:53:19.229Z,343.13
2018-06-01T10:54:19.233Z,320.63
2018-06-01T10:56:12.492Z,326.25
2018-06-01T10:57:12.418Z,320.63
2018-06-01T10:59:05.705Z,337.50
2018-06-01T11:00:05.660Z,326.25
2018-06-01T11:01:59.073Z,320.63
2018-06-01T11:02:58.892Z,331.88
2018-06-01T11:04:52.317Z,326.25
2018-06-01T11:05:52.181Z,315.00
2018-06-01T11:07:45.531Z,309.38
2018-06-01T11:08:45.377Z,315.00
2018-06-01T11:10:38.689Z,320.63
2018-06-01T11:11:38.619Z,315.00
2018-06-01T11:13:31.913Z,258.75
2018-06-01T11:14:31.917Z,253.13
2018-06-01T11:16:25.176Z,303.75
2018-06-01T11:17:25.106Z,275.63
2018-06-01T11:19:18.400Z,247.50
2018-06-01T11:20:18.354Z,247.50
2018-06-01T11:22:11.661Z,236.25
2018-06-01T11:23:11.590Z,230.63
2018-06-01T11:25:04.902Z,225.00
2018-06-01T11:26:04.831Z,225.00
2018-06-01T11:27:58.124Z,225.00
2018-06-01T11:28:58.081Z,225.00
2018-06-01T11:30:51.490Z,213.75
2018-06-01T11:31:51.313Z,208.13
2018-06-01T11:33:44.606Z,202.50
2018-06-01T11:34:44.591Z,202.50
2018-06-01T11:36:37.863Z,185.63
2018-06-01T11:37:37.793Z,174.38
2018-06-01T11:39:31.188Z,151.88
2018-06-01T11:40:31.029Z,146.25
2018-06-01T11:42:24.337Z,129.38
2018-06-01T11:43:24.267Z,118.13
2018-06-01T11:45:17.573Z,106.88
2018-06-01T11:46:17.502Z,106.88
2018-06-01T11:48:10.791Z,106.88
2018-06-01T11:49:10.739Z,106.88
2018-06-01T11:51:04.187Z,112.50
2018-06-01T11:52:03.976Z,118.13
2018-06-01T11:53:57.344Z,129.38
2018-06-01T11:54:57.286Z,135.00
2018-06-01T11:56:50.593Z,140.63
2018-06-01T11:57:50.520Z,146.25
2018-06-01T11:59:43.804Z,151.88
2018-06-01T12:00:43.754Z,163.13
2018-06-01T12:02:37.068Z,168.75
2018-06-01T12:03:36.989Z,174.38
2018-06-01T12:05:30.293Z,185.63
2018-06-01T12:06:30.219Z,202.50
2018-06-01T12:08:23.508Z,208.13
2018-06-01T12:09:23.456Z,230.63
2018-06-01T12:11:16.763Z,275.63
2018-06-01T12:12:16.692Z,292.50
2018-06-01T12:14:09.979Z,303.75
2018-06-01T12:15:09.928Z,309.38
2018-06-01T12:17:03.235Z,309.38
2018-06-01T12:18:03.163Z,275.63
2018-06-01T12:19:56.460Z,292.50
2018-06-01T12:20:56.401Z,286.88
2018-06-01T12:22:49.708Z,247.50
2018-06-01T12:23:49.637Z,258.75
2018-06-01T12:25:43.052Z,225.00
2018-06-01T12:26:42.876Z,225.00
2018-06-01T12:28:36.164Z,219.38
2018-06-01T12:29:36.112Z,213.75
2018-06-01T12:31:29.528Z,213.75
2018-06-01T12:32:29.350Z,208.13
2018-06-01T12:34:22.636Z,236.25
2018-06-01T12:35:22.584Z,230.63
2018-06-01T12:37:16.001Z,236.25
2018-06-01T12:38:15.822Z,196.88
2018-06-01T12:40:09.111Z,191.25
2018-06-01T12:41:09.059Z,202.50
2018-06-01T12:43:02.365Z,219.38
2018-06-01T12:44:02.294Z,253.13
2018-06-01T12:45:55.710Z,270.00
2018-06-01T12:46:55.530Z,258.75
2018-06-01T12:48:48.825Z,264.38
2018-06-01T12:49:48.768Z,258.75
2018-06-01T12:51:42.076Z,247.50
2018-06-01T12:52:42.007Z,225.00
2018-06-01T12:54:35.342Z,191.25
2018-06-01T12:55:35.289Z,185.63
2018-06-01T12:57:28.704Z,213.75
2018-06-01T12:58:28.527Z,219.38
2018-06-01T13:00:21.922Z,191.25
2018-06-01T13:01:21.763Z,191.25
2018-06-01T13:03:15.072Z,196.88
2018-06-01T13:04:15.000Z,208.13
2018-06-01T13:06:08.309Z,196.88
2018-06-01T13:07:08.239Z,180.00
2018-06-01T13:09:01.525Z,185.63
2018-06-01T13:10:01.480Z,219.38
2018-06-01T13:11:54.884Z,180.00
2018-06-01T13:12:54.708Z,180.00
2018-06-01T13:14:47.997Z,191.25
2018-06-01T13:15:47.945Z,191.25
2018-06-01T13:17:41.255Z,180.00
2018-06-01T13:18:41.183Z,180.00
2018-06-01T13:20:34.534Z,135.00
2018-06-01T13:21:34.432Z,118.13
2018-06-01T13:23:27.761Z,95.63
2018-06-01T13:24:27.692Z,95.63
2018-06-01T13:26:21.001Z,101.25
2018-06-01T13:27:20.926Z,112.50
2018-06-01T13:29:14.223Z,129.38
2018-06-01T13:30:14.173Z,140.63
2018-06-01T13:32:07.587Z,157.50
2018-06-01T13:33:07.421Z,163.13
2018-06-01T13:35:00.716Z,168.75
2018-06-01T13:36:00.664Z,168.75
2018-06-01T13:37:53.974Z,174.38
2018-06-01T13:38:53.904Z,191.25
2018-06-01T13:40:47.195Z,180.00
2018-06-01T13:41:47.141Z,185.63
2018-06-01T13:43:40.452Z,202.50
2018-06-01T13:44:40.381Z,208.13
2018-06-01T13:46:33.689Z,208.13
2018-06-01T13:47:33.674Z,202.50
2018-06-01T13:49:26.910Z,191.25
2018-06-01T13:50:26.855Z,180.00
2018-06-01T13:52:20.344Z,180.00
2018-06-01T13:53:20.093Z,174.38
2018-06-01T13:55:13.383Z,163.13
2018-06-01T13:56:13.332Z,163.13
2018-06-01T13:58:06.641Z,157.50
2018-06-01T13:59:06.571Z,146.25
2018-06-01T14:00:59.865Z,129.38
2018-06-01T14:01:59.814Z,112.50
2018-06-01T14:03:53.122Z,106.88
2018-06-01T14:04:53.053Z,101.25
2018-06-01T14:06:46.357Z,90.00
2018-06-01T14:07:46.286Z,90.00
2018-06-01T14:09:39.573Z,84.38
2018-06-01T14:10:39.522Z,84.38
2018-06-01T14:12:32.830Z,84.38
2018-06-01T14:13:32.760Z,90.00
2018-06-01T14:15:26.042Z,95.63
2018-06-01T14:16:25.991Z,106.88
2018-06-01T14:18:19.367Z,118.13
2018-06-01T14:19:19.347Z,123.75
2018-06-01T14:21:12.583Z,118.13
2018-06-01T14:22:12.529Z,118.13
2018-06-01T14:24:05.837Z,112.50
2018-06-01T14:25:05.763Z,112.50
2018-06-01T14:26:59.071Z,106.88
2018-06-01T14:27:58.996Z,101.25
2018-06-01T14:29:52.388Z,90.00
2018-06-01T14:30:52.227Z,78.75
2018-06-01T14:32:45.533Z,73.13
2018-06-01T14:33:45.460Z,67.50
2018-06-01T14:35:38.745Z,67.50
2018-06-01T14:36:38.692Z,67.50
2018-06-01T14:38:31.996Z,61.88
2018-06-01T14:39:31.925Z,61.88
2018-06-01T14:41:25.212Z,61.88
2018-06-01T14:42:25.156Z,61.88
2018-06-01T14:44:18.492Z,50.63
2018-06-01T14:45:18.419Z,45.00
2018-06-01T14:47:11.752Z,39.38
2018-06-01T14:48:11.617Z,39.38
2018-06-01T14:50:04.902Z,33.75
2018-06-01T14:51:04.848Z,33.75
2018-06-01T14:52:58.152Z,39.38
2018-06-01T14:53:58.079Z,39.38
2018-06-01T14:55:51.471Z,39.38
2018-06-01T14:56:51.318Z,39.38
2018-06-01T14:58:44.730Z,45.00
2018-06-01T14:59:44.548Z,45.00
2018-06-01T15:01:37.832Z,50.63
2018-06-01T15:02:37.779Z,56.25
2018-06-01T15:04:31.082Z,61.88
2018-06-01T15:05:31.006Z,67.50
2018-06-01T15:07:24.312Z,73.13
2018-06-01T15:08:24.276Z,73.13
2018-06-01T15:10:17.528Z,78.75
2018-06-01T15:11:17.467Z,78.75
2018-06-01T15:13:10.779Z,78.75
2018-06-01T15:14:10.710Z,73.13
2018-06-01T15:16:03.988Z,78.75
2018-06-01T15:17:03.934Z,78.75
2018-06-01T15:18:57.264Z,78.75
2018-06-01T15:19:57.181Z,84.38
2018-06-01T15:21:50.577Z,84.38
2018-06-01T15:22:50.418Z,84.38
2018-06-01T15:24:43.730Z,84.38
2018-06-01T15:25:43.664Z,84.38
2018-06-01T15:27:36.960Z,90.00
2018-06-01T15:28:36.886Z,90.00
2018-06-01T15:30:30.178Z,95.63
2018-06-01T15:31:30.124Z,95.63
2018-06-01T15:33:23.435Z,95.63
2018-06-01T15:34:23.362Z,95.63
2018-06-01T15:36:16.655Z,95.63
2018-06-01T15:37:16.602Z,95.63
2018-06-01T15:39:09.911Z,101.25
2018-06-01T15:40:09.838Z,106.88
2018-06-01T15:42:03.130Z,118.13
2018-06-01T15:43:03.082Z,118.13
2018-06-01T15:44:56.392Z,123.75
2018-06-01T15:45:56.315Z,123.75
2018-06-01T15:47:49.602Z,129.38
2018-06-01T15:48:49.545Z,123.75
2018-06-01T15:50:42.863Z,123.75
2018-06-01T15:51:42.783Z,118.13
2018-06-01T15:53:36.951Z,118.13
2018-06-01T15:54:36.870Z,118.13
2018-06-01T15:56:30.163Z,118.13
2018-06-01T15:57:30.118Z,118.13
2018-06-01T15:59:23.422Z,118.13
2018-06-01T16:00:23.348Z,118.13
2018-06-01T16:02:16.639Z,123.75
2018-06-01T16:03:16.585Z,123.75
2018-06-01T16:05:09.897Z,129.38
2018-06-01T16:06:09.824Z,123.75
2018-06-01T16:08:03.218Z,129.38
2018-06-01T16:09:03.053Z,118.13
2018-06-01T16:10:56.467Z,112.50
2018-06-01T16:11:56.294Z,106.88
2018-06-01T16:13:49.686Z,101.25
2018-06-01T16:14:49.534Z,101.25
2018-06-01T16:16:42.846Z,95.63
2018-06-01T16:17:42.772Z,95.63
2018-06-01T16:19:36.947Z,95.63
2018-06-01T16:20:36.869Z,95.63
2018-06-01T16:22:30.160Z,101.25
2018-06-01T16:23:30.108Z,101.25
2018-06-01T16:25:23.519Z,101.25
2018-06-01T16:26:23.345Z,101.25
2018-06-01T16:28:16.642Z,95.63
2018-06-01T16:29:16.590Z,95.63
2018-06-01T16:31:09.999Z,95.63
2018-06-01T16:32:09.826Z,90.00
2018-06-01T16:34:03.120Z,84.38
2018-06-01T16:35:03.065Z,84.38
2018-06-01T16:36:56.376Z,78.75
2018-06-01T16:37:56.302Z,73.13
2018-06-01T16:39:49.614Z,67.50
2018-06-01T16:40:49.539Z,67.50
2018-06-01T16:42:42.930Z,61.88
2018-06-01T16:43:42.777Z,61.88
2018-06-01T16:45:37.200Z,56.25
2018-06-01T16:46:36.863Z,56.25
2018-06-01T16:48:30.152Z,61.88
2018-06-01T16:49:30.098Z,61.88
2018-06-01T16:51:23.507Z,61.88
2018-06-01T16:52:23.333Z,61.88
2018-06-01T16:54:16.742Z,56.25
2018-06-01T16:55:16.570Z,56.25
2018-06-01T16:57:09.984Z,56.25
2018-06-01T16:58:09.805Z,56.25
2018-06-01T17:00:03.115Z,56.25
2018-06-01T17:01:03.041Z,56.25
2018-06-01T17:02:56.331Z,56.25
2018-06-01T17:03:56.276Z,56.25
2018-06-01T17:05:49.688Z,61.88
2018-06-01T17:06:49.512Z,61.88
2018-06-01T17:08:42.799Z,50.63
2018-06-01T17:09:42.746Z,50.63
2018-06-01T17:11:36.055Z,45.00
2018-06-01T17:12:35.982Z,45.00
2018-06-01T17:14:29.339Z,39.38
2018-06-01T17:15:29.292Z,39.38
2018-06-01T17:17:22.692Z,33.75
2018-06-01T17:18:22.508Z,28.13
2018-06-01T17:20:15.801Z,22.50
2018-06-01T17:21:15.744Z,16.88
2018-06-01T17:23:09.156Z,16.88
2018-06-01T17:24:08.984Z,16.88
2018-06-01T17:26:02.397Z,16.88
2018-06-01T17:27:02.217Z,11.25
2018-06-01T17:28:55.508Z,5.63
2018-06-01T17:29:55.455Z,5.63
2018-06-01T17:31:48.765Z,5.63
2018-06-01T17:32:48.690Z,5.63
2018-06-01T17:34:41.976Z,5.63
2018-06-01T17:35:41.924Z,5.63
2018-06-01T17:37:35.227Z,5.63
2018-06-01T17:38:35.153Z,5.63
2018-06-01T17:40:28.537Z,5.63
2018-06-01T17:41:28.386Z,5.63
2018-06-01T17:43:21.695Z,0.00
2018-06-01T17:44:21.613Z,0.00
2018-06-01T17:46:14.919Z,0.00
2018-06-01T17:47:14.847Z,0.00
2018-06-01T17:49:08.130Z,0.00
2018-06-01T17:50:08.073Z,5.63
2018-06-01T17:52:01.380Z,5.63
2018-06-01T17:53:01.302Z,5.63
2018-06-01T17:54:54.597Z,5.63
2018-06-01T17:55:54.538Z,5.63
2018-06-01T17:57:47.836Z,5.63
2018-06-01T17:58:47.759Z,5.63
2018-06-01T18:00:41.049Z,5.63
2018-06-01T18:01:40.985Z,5.63
2018-06-01T18:03:34.392Z,5.63
2018-06-01T18:04:34.211Z,11.25
2018-06-01T18:06:27.525Z,11.25
2018-06-01T18:07:27.436Z,11.25
2018-06-01T18:09:20.723Z,11.25
2018-06-01T18:10:20.665Z,11.25
2018-06-01T18:12:14.070Z,11.25
2018-06-01T18:13:13.887Z,16.88
2018-06-01T18:15:07.171Z,11.25
2018-06-01T18:16:07.111Z,11.25
2018-06-01T18:18:00.406Z,11.25
2018-06-01T18:19:00.327Z,16.88
2018-06-01T18:20:53.609Z,16.88
2018-06-01T18:21:53.594Z,16.88
2018-06-01T18:23:46.851Z,22.50
2018-06-01T18:24:46.774Z,16.88
2018-06-01T18:26:40.077Z,16.88
2018-06-01T18:27:40.025Z,16.88
2018-06-01T18:29:33.354Z,16.88